sensor_id;sensor_type;location;lat;lon;timestamp;pressure;altitude;pressure_sealevel;temperature
69597;BMP180;56802;51.184;-115.558;2022-07-23T00:01:42;86345.20;;;
69597;BMP180;56802;51.184;-115.558;2022-07-23T00:04:12;86344.80;;;
69597;BMP180;56802;51.184;-115.558;2022-07-23T00:06:41;86344.40;;;
69597;BMP180;56802;51.184;-115.558;2022-07-23T00:09:10;86341.60;;;
69597;BMP180;56802;51.184;-115.558;2022-07-23T00:11:40;86340.40;;;
69597;BMP180;56802;51.184;-115.558;2022-07-23T00:14:09;86336.60;;;
69597;BMP180;56802;51.184;-115.558;2022-07-23T00:16:39;86342.40;;;
69597;BMP180;56802;51.184;-115.558;2022-07-23T00:19:08;86343.60;;;
69597;BMP180;56802;51.184;-115.558;2022-07-23T00:21:38;86337.40;;;
69597;BMP180;56802;51.184;-115.558;2022-07-23T00:24:07;86332.60;;;
69597;BMP180;56802;51.184;-115.558;2022-07-23T00:26:36;86328.00;;;
69597;BMP180;56802;51.184;-115.558;2022-07-23T00:29:06;86327.60;;;
69597;BMP180;56802;51.184;-115.558;2022-07-23T00:31:35;86329.80;;;
69597;BMP180;56802;51.184;-115.558;2022-07-23T00:34:04;86328.40;;;
69597;BMP180;56802;51.184;-115.558;2022-07-23T00:36:34;86334.80;;;
69597;BMP180;56802;51.184;-115.558;2022-07-23T00:39:03;86330.00;;;
69597;BMP180;56802;51.184;-115.558;2022-07-23T00:41:33;86326.20;;;
69597;BMP180;56802;51.184;-115.558;2022-07-23T00:44:35;86325.80;;;
69597;BMP180;56802;51.184;-115.558;2022-07-23T00:47:07;86329.40;;;
69597;BMP180;56802;51.184;-115.558;2022-07-23T00:49:36;86329.00;;;
69597;BMP180;56802;51.184;-115.558;2022-07-23T00:52:06;86336.20;;;
69597;BMP180;56802;51.184;-115.558;2022-07-23T00:54:36;86340.20;;;
69597;BMP180;56802;51.184;-115.558;2022-07-23T00:57:06;86338.40;;;
69597;BMP180;56802;51.184;-115.558;2022-07-23T00:59:35;86342.40;;;
69597;BMP180;56802;51.184;-115.558;2022-07-23T01:02:05;86337.40;;;
69597;BMP180;56802;51.184;-115.558;2022-07-23T01:04:34;86340.00;;;
69597;BMP180;56802;51.184;-115.558;2022-07-23T01:07:03;86339.40;;;
69597;BMP180;56802;51.184;-115.558;2022-07-23T01:09:33;86342.00;;;
69597;BMP180;56802;51.184;-115.558;2022-07-23T01:12:03;86347.40;;;
69597;BMP180;56802;51.184;-115.558;2022-07-23T01:14:33;86345.20;;;
69597;BMP180;56802;51.184;-115.558;2022-07-23T01:17:03;86347.00;;;
69597;BMP180;56802;51.184;-115.558;2022-07-23T01:19:33;86360.80;;;
69597;BMP180;56802;51.184;-115.558;2022-07-23T01:22:03;86365.00;;;
69597;BMP180;56802;51.184;-115.558;2022-07-23T01:24:33;86367.00;;;
69597;BMP180;56802;51.184;-115.558;2022-07-23T01:27:02;86366.20;;;
69597;BMP180;56802;51.184;-115.558;2022-07-23T01:29:32;86378.60;;;
69597;BMP180;56802;51.184;-115.558;2022-07-23T01:32:01;86375.00;;;
69597;BMP180;56802;51.184;-115.558;2022-07-23T01:34:31;86383.40;;;
69597;BMP180;56802;51.184;-115.558;2022-07-23T01:37:00;86392.00;;;
69597;BMP180;56802;51.184;-115.558;2022-07-23T01:39:29;86394.40;;;
69597;BMP180;56802;51.184;-115.558;2022-07-23T01:42:00;86393.00;;;
69597;BMP180;56802;51.184;-115.558;2022-07-23T01:44:29;86397.20;;;
69597;BMP180;56802;51.184;-115.558;2022-07-23T01:46:59;86404.60;;;
69597;BMP180;56802;51.184;-115.558;2022-07-23T01:49:28;86408.00;;;
69597;BMP180;56802;51.184;-115.558;2022-07-23T01:51:59;86413.20;;;
69597;BMP180;56802;51.184;-115.558;2022-07-23T01:54:31;86417.00;;;
69597;BMP180;56802;51.184;-115.558;2022-07-23T01:57:01;86418.00;;;
69597;BMP180;56802;51.184;-115.558;2022-07-23T01:59:31;86424.20;;;
69597;BMP180;56802;51.184;-115.558;2022-07-23T02:02:00;86426.20;;;
69597;BMP180;56802;51.184;-115.558;2022-07-23T02:04:30;86424.60;;;
69597;BMP180;56802;51.184;-115.558;2022-07-23T02:06:59;86430.60;;;
69597;BMP180;56802;51.184;-115.558;2022-07-23T02:09:29;86433.80;;;
69597;BMP180;56802;51.184;-115.558;2022-07-23T02:11:58;86430.40;;;
69597;BMP180;56802;51.184;-115.558;2022-07-23T02:14:28;86435.60;;;
69597;BMP180;56802;51.184;-115.558;2022-07-23T02:16:57;86442.40;;;
69597;BMP180;56802;51.184;-115.558;2022-07-23T02:19:26;86448.80;;;
69597;BMP180;56802;51.184;-115.558;2022-07-23T02:21:56;86455.40;;;
69597;BMP180;56802;51.184;-115.558;2022-07-23T02:24:25;86462.60;;;
69597;BMP180;56802;51.184;-115.558;2022-07-23T02:26:55;86462.60;;;
69597;BMP180;56802;51.184;-115.558;2022-07-23T02:29:24;86469.20;;;
69597;BMP180;56802;51.184;-115.558;2022-07-23T02:31:54;86469.40;;;
69597;BMP180;56802;51.184;-115.558;2022-07-23T02:34:23;86469.80;;;
69597;BMP180;56802;51.184;-115.558;2022-07-23T02:36:53;86472.80;;;
69597;BMP180;56802;51.184;-115.558;2022-07-23T02:39:23;86472.40;;;
69597;BMP180;56802;51.184;-115.558;2022-07-23T02:41:52;86482.40;;;
69597;BMP180;56802;51.184;-115.558;2022-07-23T02:44:22;86487.60;;;
69597;BMP180;56802;51.184;-115.558;2022-07-23T02:46:51;86478.80;;;
69597;BMP180;56802;51.184;-115.558;2022-07-23T02:49:21;86485.60;;;
69597;BMP180;56802;51.184;-115.558;2022-07-23T02:51:50;86485.80;;;
69597;BMP180;56802;51.184;-115.558;2022-07-23T02:54:20;86498.40;;;
69597;BMP180;56802;51.184;-115.558;2022-07-23T02:56:49;86503.60;;;
69597;BMP180;56802;51.184;-115.558;2022-07-23T02:59:22;86504.40;;;
69597;BMP180;56802;51.184;-115.558;2022-07-23T03:01:51;86511.40;;;
69597;BMP180;56802;51.184;-115.558;2022-07-23T03:04:21;86513.00;;;
69597;BMP180;56802;51.184;-115.558;2022-07-23T03:06:50;86515.00;;;
69597;BMP180;56802;51.184;-115.558;2022-07-23T03:09:20;86514.40;;;
69597;BMP180;56802;51.184;-115.558;2022-07-23T03:11:49;86527.20;;;
69597;BMP180;56802;51.184;-115.558;2022-07-23T03:14:19;86533.40;;;
69597;BMP180;56802;51.184;-115.558;2022-07-23T03:16:48;86529.20;;;
69597;BMP180;56802;51.184;-115.558;2022-07-23T03:19:19;86530.60;;;
69597;BMP180;56802;51.184;-115.558;2022-07-23T03:21:48;86531.40;;;
69597;BMP180;56802;51.184;-115.558;2022-07-23T03:24:17;86531.80;;;
69597;BMP180;56802;51.184;-115.558;2022-07-23T03:26:46;86536.80;;;
69597;BMP180;56802;51.184;-115.558;2022-07-23T03:29:16;86538.40;;;
69597;BMP180;56802;51.184;-115.558;2022-07-23T03:31:46;86542.20;;;
69597;BMP180;56802;51.184;-115.558;2022-07-23T03:34:16;86542.20;;;
69597;BMP180;56802;51.184;-115.558;2022-07-23T03:36:47;86540.80;;;
69597;BMP180;56802;51.184;-115.558;2022-07-23T03:39:16;86541.60;;;
69597;BMP180;56802;51.184;-115.558;2022-07-23T03:41:45;86552.20;;;
69597;BMP180;56802;51.184;-115.558;2022-07-23T03:44:14;86555.00;;;
69597;BMP180;56802;51.184;-115.558;2022-07-23T03:46:44;86558.60;;;
69597;BMP180;56802;51.184;-115.558;2022-07-23T03:49:13;86558.00;;;
69597;BMP180;56802;51.184;-115.558;2022-07-23T03:51:46;86554.60;;;
69597;BMP180;56802;51.184;-115.558;2022-07-23T03:54:16;86550.40;;;
69597;BMP180;56802;51.184;-115.558;2022-07-23T03:56:46;86552.60;;;
69597;BMP180;56802;51.184;-115.558;2022-07-23T03:59:15;86559.40;;;
69597;BMP180;56802;51.184;-115.558;2022-07-23T04:01:51;86564.20;;;
69597;BMP180;56802;51.184;-115.558;2022-07-23T04:04:20;86570.20;;;
69597;BMP180;56802;51.184;-115.558;2022-07-23T04:06:50;86574.80;;;
69597;BMP180;56802;51.184;-115.558;2022-07-23T04:09:19;86584.20;;;
69597;BMP180;56802;51.184;-115.558;2022-07-23T04:11:49;86586.60;;;
69597;BMP180;56802;51.184;-115.558;2022-07-23T04:14:18;86589.60;;;
69597;BMP180;56802;51.184;-115.558;2022-07-23T04:16:48;86590.20;;;
69597;BMP180;56802;51.184;-115.558;2022-07-23T04:19:17;86592.60;;;
69597;BMP180;56802;51.184;-115.558;2022-07-23T04:21:46;86596.60;;;
69597;BMP180;56802;51.184;-115.558;2022-07-23T04:24:16;86603.80;;;
69597;BMP180;56802;51.184;-115.558;2022-07-23T04:26:46;86614.20;;;
69597;BMP180;56802;51.184;-115.558;2022-07-23T04:29:15;86616.40;;;
69597;BMP180;56802;51.184;-115.558;2022-07-23T04:31:45;86618.00;;;
69597;BMP180;56802;51.184;-115.558;2022-07-23T04:34:15;86615.20;;;
69597;BMP180;56802;51.184;-115.558;2022-07-23T04:36:44;86615.00;;;
69597;BMP180;56802;51.184;-115.558;2022-07-23T04:39:14;86616.60;;;
69597;BMP180;56802;51.184;-115.558;2022-07-23T04:41:43;86616.80;;;
69597;BMP180;56802;51.184;-115.558;2022-07-23T04:44:12;86616.40;;;
69597;BMP180;56802;51.184;-115.558;2022-07-23T04:46:42;86611.20;;;
69597;BMP180;56802;51.184;-115.558;2022-07-23T04:49:12;86613.00;;;
69597;BMP180;56802;51.184;-115.558;2022-07-23T04:51:41;86617.80;;;
69597;BMP180;56802;51.184;-115.558;2022-07-23T04:54:10;86612.20;;;
69597;BMP180;56802;51.184;-115.558;2022-07-23T04:56:39;86617.80;;;
69597;BMP180;56802;51.184;-115.558;2022-07-23T04:59:09;86617.40;;;
69597;BMP180;56802;51.184;-115.558;2022-07-23T05:01:38;86621.60;;;
69597;BMP180;56802;51.184;-115.558;2022-07-23T05:04:08;86621.00;;;
69597;BMP180;56802;51.184;-115.558;2022-07-23T05:06:37;86617.40;;;
69597;BMP180;56802;51.184;-115.558;2022-07-23T05:09:07;86621.20;;;
69597;BMP180;56802;51.184;-115.558;2022-07-23T05:11:38;86616.60;;;
69597;BMP180;56802;51.184;-115.558;2022-07-23T05:14:08;86625.00;;;
69597;BMP180;56802;51.184;-115.558;2022-07-23T05:16:37;86631.80;;;
69597;BMP180;56802;51.184;-115.558;2022-07-23T05:19:06;86635.80;;;
69597;BMP180;56802;51.184;-115.558;2022-07-23T05:21:35;86634.00;;;
69597;BMP180;56802;51.184;-115.558;2022-07-23T05:24:06;86635.20;;;
69597;BMP180;56802;51.184;-115.558;2022-07-23T05:26:35;86640.00;;;
69597;BMP180;56802;51.184;-115.558;2022-07-23T05:29:05;86639.60;;;
69597;BMP180;56802;51.184;-115.558;2022-07-23T05:31:34;86639.00;;;
69597;BMP180;56802;51.184;-115.558;2022-07-23T05:34:04;86640.60;;;
69597;BMP180;56802;51.184;-115.558;2022-07-23T05:36:34;86638.40;;;
69597;BMP180;56802;51.184;-115.558;2022-07-23T05:39:04;86640.60;;;
69597;BMP180;56802;51.184;-115.558;2022-07-23T05:41:34;86641.80;;;
69597;BMP180;56802;51.184;-115.558;2022-07-23T05:44:03;86640.40;;;
69597;BMP180;56802;51.184;-115.558;2022-07-23T05:46:32;86639.60;;;
69597;BMP180;56802;51.184;-115.558;2022-07-23T05:49:02;86641.60;;;
69597;BMP180;56802;51.184;-115.558;2022-07-23T05:51:33;86636.00;;;
69597;BMP180;56802;51.184;-115.558;2022-07-23T05:54:02;86641.00;;;
69597;BMP180;56802;51.184;-115.558;2022-07-23T05:56:31;86641.40;;;
69597;BMP180;56802;51.184;-115.558;2022-07-23T05:59:00;86640.00;;;
69597;BMP180;56802;51.184;-115.558;2022-07-23T06:01:30;86644.60;;;
69597;BMP180;56802;51.184;-115.558;2022-07-23T06:03:59;86644.20;;;
69597;BMP180;56802;51.184;-115.558;2022-07-23T06:06:29;86646.20;;;
69597;BMP180;56802;51.184;-115.558;2022-07-23T06:08:59;86653.40;;;
69597;BMP180;56802;51.184;-115.558;2022-07-23T06:11:28;86655.00;;;
69597;BMP180;56802;51.184;-115.558;2022-07-23T06:13:58;86656.20;;;
69597;BMP180;56802;51.184;-115.558;2022-07-23T06:16:27;86659.60;;;
69597;BMP180;56802;51.184;-115.558;2022-07-23T06:18:57;86656.60;;;
69597;BMP180;56802;51.184;-115.558;2022-07-23T06:21:27;86653.00;;;
69597;BMP180;56802;51.184;-115.558;2022-07-23T06:24:14;86656.60;;;
69597;BMP180;56802;51.184;-115.558;2022-07-23T06:26:44;86658.60;;;
69597;BMP180;56802;51.184;-115.558;2022-07-23T06:29:13;86663.60;;;
69597;BMP180;56802;51.184;-115.558;2022-07-23T06:31:43;86660.40;;;
69597;BMP180;56802;51.184;-115.558;2022-07-23T06:34:12;86665.20;;;
69597;BMP180;56802;51.184;-115.558;2022-07-23T06:36:42;86668.80;;;
69597;BMP180;56802;51.184;-115.558;2022-07-23T06:39:12;86663.00;;;
69597;BMP180;56802;51.184;-115.558;2022-07-23T06:41:42;86665.60;;;
69597;BMP180;56802;51.184;-115.558;2022-07-23T06:44:20;86670.80;;;
69597;BMP180;56802;51.184;-115.558;2022-07-23T06:46:49;86672.20;;;
69597;BMP180;56802;51.184;-115.558;2022-07-23T06:49:18;86670.60;;;
69597;BMP180;56802;51.184;-115.558;2022-07-23T06:51:48;86675.40;;;
69597;BMP180;56802;51.184;-115.558;2022-07-23T06:54:19;86682.20;;;
69597;BMP180;56802;51.184;-115.558;2022-07-23T06:56:48;86683.60;;;
69597;BMP180;56802;51.184;-115.558;2022-07-23T06:59:17;86682.00;;;
69597;BMP180;56802;51.184;-115.558;2022-07-23T07:01:47;86682.40;;;
69597;BMP180;56802;51.184;-115.558;2022-07-23T07:04:16;86679.80;;;
69597;BMP180;56802;51.184;-115.558;2022-07-23T07:06:45;86682.40;;;
69597;BMP180;56802;51.184;-115.558;2022-07-23T07:09:15;86680.80;;;
69597;BMP180;56802;51.184;-115.558;2022-07-23T07:11:44;86686.00;;;
69597;BMP180;56802;51.184;-115.558;2022-07-23T07:14:13;86682.80;;;
69597;BMP180;56802;51.184;-115.558;2022-07-23T07:16:44;86685.80;;;
69597;BMP180;56802;51.184;-115.558;2022-07-23T07:19:13;86687.60;;;
69597;BMP180;56802;51.184;-115.558;2022-07-23T07:21:42;86686.20;;;
69597;BMP180;56802;51.184;-115.558;2022-07-23T07:24:11;86687.40;;;
69597;BMP180;56802;51.184;-115.558;2022-07-23T07:26:41;86688.80;;;
69597;BMP180;56802;51.184;-115.558;2022-07-23T07:29:12;86692.00;;;
69597;BMP180;56802;51.184;-115.558;2022-07-23T07:31:41;86692.20;;;
69597;BMP180;56802;51.184;-115.558;2022-07-23T07:34:11;86691.80;;;
69597;BMP180;56802;51.184;-115.558;2022-07-23T07:36:40;86695.80;;;
69597;BMP180;56802;51.184;-115.558;2022-07-23T07:39:12;86695.60;;;
69597;BMP180;56802;51.184;-115.558;2022-07-23T07:41:41;86699.00;;;
69597;BMP180;56802;51.184;-115.558;2022-07-23T07:44:11;86695.40;;;
69597;BMP180;56802;51.184;-115.558;2022-07-23T07:46:40;86691.60;;;
69597;BMP180;56802;51.184;-115.558;2022-07-23T07:49:09;86693.40;;;
69597;BMP180;56802;51.184;-115.558;2022-07-23T07:51:42;86694.20;;;
69597;BMP180;56802;51.184;-115.558;2022-07-23T07:54:12;86696.60;;;
69597;BMP180;56802;51.184;-115.558;2022-07-23T07:56:42;86699.60;;;
69597;BMP180;56802;51.184;-115.558;2022-07-23T07:59:11;86693.80;;;
69597;BMP180;56802;51.184;-115.558;2022-07-23T08:01:41;86696.40;;;
69597;BMP180;56802;51.184;-115.558;2022-07-23T08:04:10;86694.80;;;
69597;BMP180;56802;51.184;-115.558;2022-07-23T08:06:40;86692.80;;;
69597;BMP180;56802;51.184;-115.558;2022-07-23T08:09:10;86689.60;;;
69597;BMP180;56802;51.184;-115.558;2022-07-23T08:11:39;86696.00;;;
69597;BMP180;56802;51.184;-115.558;2022-07-23T08:14:09;86696.00;;;
69597;BMP180;56802;51.184;-115.558;2022-07-23T08:16:39;86695.20;;;
69597;BMP180;56802;51.184;-115.558;2022-07-23T08:19:29;86697.40;;;
69597;BMP180;56802;51.184;-115.558;2022-07-23T08:21:58;86698.00;;;
69597;BMP180;56802;51.184;-115.558;2022-07-23T08:24:27;86697.60;;;
69597;BMP180;56802;51.184;-115.558;2022-07-23T08:26:57;86694.80;;;
69597;BMP180;56802;51.184;-115.558;2022-07-23T08:29:26;86700.00;;;
69597;BMP180;56802;51.184;-115.558;2022-07-23T08:31:55;86698.00;;;
69597;BMP180;56802;51.184;-115.558;2022-07-23T08:34:24;86698.40;;;
69597;BMP180;56802;51.184;-115.558;2022-07-23T08:36:54;86701.60;;;
69597;BMP180;56802;51.184;-115.558;2022-07-23T08:39:23;86696.80;;;
69597;BMP180;56802;51.184;-115.558;2022-07-23T08:41:53;86696.80;;;
69597;BMP180;56802;51.184;-115.558;2022-07-23T08:44:22;86694.60;;;
69597;BMP180;56802;51.184;-115.558;2022-07-23T08:46:52;86698.20;;;
69597;BMP180;56802;51.184;-115.558;2022-07-23T08:49:21;86701.60;;;
69597;BMP180;56802;51.184;-115.558;2022-07-23T08:51:52;86701.20;;;
69597;BMP180;56802;51.184;-115.558;2022-07-23T08:54:22;86705.00;;;
69597;BMP180;56802;51.184;-115.558;2022-07-23T08:56:52;86704.40;;;
69597;BMP180;56802;51.184;-115.558;2022-07-23T08:59:21;86701.60;;;
69597;BMP180;56802;51.184;-115.558;2022-07-23T09:01:51;86706.60;;;
69597;BMP180;56802;51.184;-115.558;2022-07-23T09:04:20;86708.40;;;
69597;BMP180;56802;51.184;-115.558;2022-07-23T09:06:54;86708.00;;;
69597;BMP180;56802;51.184;-115.558;2022-07-23T09:09:24;86703.20;;;
69597;BMP180;56802;51.184;-115.558;2022-07-23T09:12:09;86705.80;;;
69597;BMP180;56802;51.184;-115.558;2022-07-23T09:14:48;86703.20;;;
69597;BMP180;56802;51.184;-115.558;2022-07-23T09:17:18;86703.40;;;
69597;BMP180;56802;51.184;-115.558;2022-07-23T09:19:48;86704.20;;;
69597;BMP180;56802;51.184;-115.558;2022-07-23T09:22:27;86700.20;;;
69597;BMP180;56802;51.184;-115.558;2022-07-23T09:25:15;86697.40;;;
69597;BMP180;56802;51.184;-115.558;2022-07-23T09:27:55;86702.80;;;
69597;BMP180;56802;51.184;-115.558;2022-07-23T09:30:30;86706.00;;;
69597;BMP180;56802;51.184;-115.558;2022-07-23T09:33:15;86704.80;;;
69597;BMP180;56802;51.184;-115.558;2022-07-23T09:35:57;86705.60;;;
69597;BMP180;56802;51.184;-115.558;2022-07-23T09:38:27;86707.60;;;
69597;BMP180;56802;51.184;-115.558;2022-07-23T09:41:11;86707.40;;;
69597;BMP180;56802;51.184;-115.558;2022-07-23T09:43:42;86709.60;;;
69597;BMP180;56802;51.184;-115.558;2022-07-23T09:48:56;86714.20;;;
69597;BMP180;56802;51.184;-115.558;2022-07-23T09:51:26;86709.20;;;
69597;BMP180;56802;51.184;-115.558;2022-07-23T09:54:05;86708.80;;;
69597;BMP180;56802;51.184;-115.558;2022-07-23T09:56:35;86708.60;;;
69597;BMP180;56802;51.184;-115.558;2022-07-23T09:59:05;86710.00;;;
69597;BMP180;56802;51.184;-115.558;2022-07-23T10:01:41;86713.20;;;
69597;BMP180;56802;51.184;-115.558;2022-07-23T10:04:12;86712.40;;;
69597;BMP180;56802;51.184;-115.558;2022-07-23T10:06:44;86718.00;;;
69597;BMP180;56802;51.184;-115.558;2022-07-23T10:09:21;86717.40;;;
69597;BMP180;56802;51.184;-115.558;2022-07-23T10:11:56;86720.40;;;
69597;BMP180;56802;51.184;-115.558;2022-07-23T10:14:45;86722.80;;;
69597;BMP180;56802;51.184;-115.558;2022-07-23T10:17:18;86721.80;;;
69597;BMP180;56802;51.184;-115.558;2022-07-23T10:19:48;86724.80;;;
69597;BMP180;56802;51.184;-115.558;2022-07-23T10:22:33;86721.80;;;
69597;BMP180;56802;51.184;-115.558;2022-07-23T10:36:56;86716.00;;;
69597;BMP180;56802;51.184;-115.558;2022-07-23T10:39:33;86716.20;;;
69597;BMP180;56802;51.184;-115.558;2022-07-23T10:42:14;86715.80;;;
69597;BMP180;56802;51.184;-115.558;2022-07-23T10:44:47;86713.20;;;
69597;BMP180;56802;51.184;-115.558;2022-07-23T10:47:30;86716.40;;;
69597;BMP180;56802;51.184;-115.558;2022-07-23T10:50:29;86718.60;;;
69597;BMP180;56802;51.184;-115.558;2022-07-23T10:53:12;86714.60;;;
69597;BMP180;56802;51.184;-115.558;2022-07-23T10:55:49;86713.40;;;
69597;BMP180;56802;51.184;-115.558;2022-07-23T10:58:46;86713.00;;;
69597;BMP180;56802;51.184;-115.558;2022-07-23T11:01:37;86711.20;;;
69597;BMP180;56802;51.184;-115.558;2022-07-23T11:04:07;86709.80;;;
69597;BMP180;56802;51.184;-115.558;2022-07-23T11:09:39;86712.80;;;
69597;BMP180;56802;51.184;-115.558;2022-07-23T11:17:29;86718.60;;;
69597;BMP180;56802;51.184;-115.558;2022-07-23T11:27:52;86720.40;;;
69597;BMP180;56802;51.184;-115.558;2022-07-23T11:35:43;86721.80;;;
69597;BMP180;56802;51.184;-115.558;2022-07-23T11:38:18;86722.20;;;
69597;BMP180;56802;51.184;-115.558;2022-07-23T11:40:52;86723.00;;;
69597;BMP180;56802;51.184;-115.558;2022-07-23T11:43:22;86723.20;;;
69597;BMP180;56802;51.184;-115.558;2022-07-23T11:46:00;86720.00;;;
69597;BMP180;56802;51.184;-115.558;2022-07-23T11:48:31;86726.00;;;
69597;BMP180;56802;51.184;-115.558;2022-07-23T11:51:07;86726.80;;;
69597;BMP180;56802;51.184;-115.558;2022-07-23T11:53:36;86728.40;;;
69597;BMP180;56802;51.184;-115.558;2022-07-23T11:56:11;86730.40;;;
69597;BMP180;56802;51.184;-115.558;2022-07-23T11:58:55;86732.60;;;
69597;BMP180;56802;51.184;-115.558;2022-07-23T12:01:27;86734.20;;;
69597;BMP180;56802;51.184;-115.558;2022-07-23T12:03:56;86736.00;;;
69597;BMP180;56802;51.184;-115.558;2022-07-23T12:06:25;86734.20;;;
69597;BMP180;56802;51.184;-115.558;2022-07-23T12:08:55;86734.20;;;
69597;BMP180;56802;51.184;-115.558;2022-07-23T12:11:24;86734.20;;;
69597;BMP180;56802;51.184;-115.558;2022-07-23T12:13:57;86731.20;;;
69597;BMP180;56802;51.184;-115.558;2022-07-23T12:16:27;86730.00;;;
69597;BMP180;56802;51.184;-115.558;2022-07-23T12:18:59;86729.80;;;
69597;BMP180;56802;51.184;-115.558;2022-07-23T12:21:28;86730.40;;;
69597;BMP180;56802;51.184;-115.558;2022-07-23T12:24:07;86733.20;;;
69597;BMP180;56802;51.184;-115.558;2022-07-23T12:26:36;86730.40;;;
69597;BMP180;56802;51.184;-115.558;2022-07-23T12:29:06;86738.60;;;
69597;BMP180;56802;51.184;-115.558;2022-07-23T12:31:36;86735.00;;;
69597;BMP180;56802;51.184;-115.558;2022-07-23T12:34:14;86738.20;;;
69597;BMP180;56802;51.184;-115.558;2022-07-23T12:36:44;86731.00;;;
69597;BMP180;56802;51.184;-115.558;2022-07-23T12:39:31;86732.60;;;
69597;BMP180;56802;51.184;-115.558;2022-07-23T12:42:00;86732.00;;;
69597;BMP180;56802;51.184;-115.558;2022-07-23T12:44:29;86733.40;;;
69597;BMP180;56802;51.184;-115.558;2022-07-23T12:47:05;86734.20;;;
69597;BMP180;56802;51.184;-115.558;2022-07-23T12:49:36;86739.40;;;
69597;BMP180;56802;51.184;-115.558;2022-07-23T12:52:16;86736.20;;;
69597;BMP180;56802;51.184;-115.558;2022-07-23T12:54:46;86741.40;;;
69597;BMP180;56802;51.184;-115.558;2022-07-23T12:57:16;86735.80;;;
69597;BMP180;56802;51.184;-115.558;2022-07-23T12:59:46;86738.20;;;
69597;BMP180;56802;51.184;-115.558;2022-07-23T13:02:15;86740.40;;;
69597;BMP180;56802;51.184;-115.558;2022-07-23T13:04:48;86744.80;;;
69597;BMP180;56802;51.184;-115.558;2022-07-23T13:07:17;86743.60;;;
69597;BMP180;56802;51.184;-115.558;2022-07-23T13:09:48;86748.20;;;
69597;BMP180;56802;51.184;-115.558;2022-07-23T13:12:18;86746.00;;;
69597;BMP180;56802;51.184;-115.558;2022-07-23T13:14:47;86742.40;;;
69597;BMP180;56802;51.184;-115.558;2022-07-23T13:17:20;86744.20;;;
69597;BMP180;56802;51.184;-115.558;2022-07-23T13:19:52;86749.20;;;
69597;BMP180;56802;51.184;-115.558;2022-07-23T13:22:22;86754.80;;;
69597;BMP180;56802;51.184;-115.558;2022-07-23T13:24:51;86757.00;;;
69597;BMP180;56802;51.184;-115.558;2022-07-23T13:27:21;86757.40;;;
69597;BMP180;56802;51.184;-115.558;2022-07-23T13:29:50;86756.80;;;
69597;BMP180;56802;51.184;-115.558;2022-07-23T13:32:20;86759.20;;;
69597;BMP180;56802;51.184;-115.558;2022-07-23T13:34:50;86759.20;;;
69597;BMP180;56802;51.184;-115.558;2022-07-23T13:37:19;86760.60;;;
69597;BMP180;56802;51.184;-115.558;2022-07-23T13:39:51;86760.40;;;
69597;BMP180;56802;51.184;-115.558;2022-07-23T13:42:21;86760.40;;;
69597;BMP180;56802;51.184;-115.558;2022-07-23T13:44:50;86758.80;;;
69597;BMP180;56802;51.184;-115.558;2022-07-23T13:47:19;86759.00;;;
69597;BMP180;56802;51.184;-115.558;2022-07-23T13:49:49;86761.60;;;
69597;BMP180;56802;51.184;-115.558;2022-07-23T13:52:18;86761.60;;;
69597;BMP180;56802;51.184;-115.558;2022-07-23T13:54:47;86757.40;;;
69597;BMP180;56802;51.184;-115.558;2022-07-23T13:57:17;86761.20;;;
69597;BMP180;56802;51.184;-115.558;2022-07-23T13:59:47;86768.60;;;
69597;BMP180;56802;51.184;-115.558;2022-07-23T14:02:17;86767.60;;;
69597;BMP180;56802;51.184;-115.558;2022-07-23T14:04:52;86771.60;;;
69597;BMP180;56802;51.184;-115.558;2022-07-23T14:07:21;86771.60;;;
69597;BMP180;56802;51.184;-115.558;2022-07-23T14:09:51;86769.60;;;
69597;BMP180;56802;51.184;-115.558;2022-07-23T14:12:21;86765.60;;;
69597;BMP180;56802;51.184;-115.558;2022-07-23T14:14:51;86763.40;;;
69597;BMP180;56802;51.184;-115.558;2022-07-23T14:17:21;86760.00;;;
69597;BMP180;56802;51.184;-115.558;2022-07-23T14:19:53;86757.20;;;
69597;BMP180;56802;51.184;-115.558;2022-07-23T14:22:22;86756.20;;;
69597;BMP180;56802;51.184;-115.558;2022-07-23T14:24:52;86751.40;;;
69597;BMP180;56802;51.184;-115.558;2022-07-23T14:27:21;86749.60;;;
69597;BMP180;56802;51.184;-115.558;2022-07-23T14:29:52;86750.20;;;
69597;BMP180;56802;51.184;-115.558;2022-07-23T14:32:24;86753.00;;;
69597;BMP180;56802;51.184;-115.558;2022-07-23T14:34:53;86748.00;;;
69597;BMP180;56802;51.184;-115.558;2022-07-23T14:37:26;86754.80;;;
69597;BMP180;56802;51.184;-115.558;2022-07-23T14:39:59;86748.20;;;
69597;BMP180;56802;51.184;-115.558;2022-07-23T14:42:31;86745.80;;;
69597;BMP180;56802;51.184;-115.558;2022-07-23T14:45:00;86747.60;;;
69597;BMP180;56802;51.184;-115.558;2022-07-23T14:47:37;86738.40;;;
69597;BMP180;56802;51.184;-115.558;2022-07-23T14:50:07;86744.00;;;
69597;BMP180;56802;51.184;-115.558;2022-07-23T14:52:37;86737.20;;;
69597;BMP180;56802;51.184;-115.558;2022-07-23T14:55:07;86735.60;;;
69597;BMP180;56802;51.184;-115.558;2022-07-23T14:57:36;86739.00;;;
69597;BMP180;56802;51.184;-115.558;2022-07-23T15:00:06;86734.20;;;
69597;BMP180;56802;51.184;-115.558;2022-07-23T15:02:36;86727.40;;;
69597;BMP180;56802;51.184;-115.558;2022-07-23T15:05:06;86729.60;;;
69597;BMP180;56802;51.184;-115.558;2022-07-23T15:07:37;86722.60;;;
69597;BMP180;56802;51.184;-115.558;2022-07-23T15:10:07;86726.00;;;
69597;BMP180;56802;51.184;-115.558;2022-07-23T15:12:36;86722.20;;;
69597;BMP180;56802;51.184;-115.558;2022-07-23T15:15:07;86722.60;;;
69597;BMP180;56802;51.184;-115.558;2022-07-23T15:17:36;86723.20;;;
69597;BMP180;56802;51.184;-115.558;2022-07-23T15:20:06;86722.60;;;
69597;BMP180;56802;51.184;-115.558;2022-07-23T15:22:37;86721.40;;;
69597;BMP180;56802;51.184;-115.558;2022-07-23T15:25:07;86717.80;;;
69597;BMP180;56802;51.184;-115.558;2022-07-23T15:27:39;86719.60;;;
69597;BMP180;56802;51.184;-115.558;2022-07-23T15:30:10;86726.00;;;
69597;BMP180;56802;51.184;-115.558;2022-07-23T15:32:39;86726.60;;;